createdAt,value
2022-09-12T00:00:59.359Z,12.41
2022-09-12T00:01:59.314Z,12.38
2022-09-12T00:02:59.356Z,12.38
2022-09-12T00:03:59.369Z,12.40
2022-09-12T00:04:59.145Z,12.41
2022-09-12T00:05:59.385Z,12.38
2022-09-12T00:06:59.245Z,12.41
2022-09-12T00:07:59.185Z,12.38
2022-09-12T00:08:58.993Z,12.40
2022-09-12T00:09:59.043Z,12.40
2022-09-12T00:10:59.113Z,12.35
2022-09-12T00:11:58.986Z,12.35
2022-09-12T00:12:59.043Z,12.35
2022-09-12T00:13:59.094Z,12.35
2022-09-12T00:14:59.145Z,12.36
2022-09-12T00:15:58.944Z,12.35
2022-09-12T00:16:58.952Z,12.30
2022-09-12T00:17:58.961Z,12.29
2022-09-12T00:18:59.827Z,12.28
2022-09-12T00:19:58.983Z,12.23
2022-09-12T00:20:59.033Z,12.25
2022-09-12T00:21:59.062Z,12.21
2022-09-12T00:22:59.113Z,12.18
2022-09-12T00:23:59.181Z,12.17
2022-09-12T00:24:59.201Z,12.21
2022-09-12T00:25:59.254Z,12.21
2022-09-12T00:26:59.001Z,12.17
2022-09-12T00:27:59.460Z,12.14
2022-09-12T00:28:59.381Z,12.14
2022-09-12T00:29:58.870Z,12.14
2022-09-12T00:30:58.841Z,12.15
2022-09-12T00:31:58.915Z,12.18
2022-09-12T00:32:58.859Z,12.18
2022-09-12T00:33:58.866Z,12.21
2022-09-12T00:34:58.910Z,12.17
2022-09-12T00:35:58.930Z,12.18
2022-09-12T00:36:59.622Z,12.21
2022-09-12T00:37:58.789Z,12.23
2022-09-12T00:38:59.359Z,12.18
2022-09-12T00:39:59.646Z,12.22
2022-09-12T00:40:59.622Z,12.25
2022-09-12T00:41:58.848Z,12.22
2022-09-12T00:42:59.339Z,12.26
2022-09-12T00:43:59.165Z,12.26
2022-09-12T00:44:58.739Z,12.18
2022-09-12T00:45:58.852Z,12.21
2022-09-12T00:46:58.725Z,12.15
2022-09-12T00:47:58.757Z,12.15
2022-09-12T00:48:58.747Z,12.17
2022-09-12T00:49:58.780Z,12.10
2022-09-12T00:50:58.775Z,12.04
2022-09-12T00:51:58.786Z,12.04
2022-09-12T00:52:58.698Z,11.96
2022-09-12T00:53:58.806Z,11.96
2022-09-12T00:54:58.818Z,11.95
2022-09-12T00:55:58.833Z,11.96
2022-09-12T00:56:58.685Z,11.97
2022-09-12T00:57:58.755Z,11.93
2022-09-12T00:58:58.786Z,11.95
2022-09-12T00:59:58.796Z,11.96
2022-09-12T01:00:58.812Z,11.91
2022-09-12T01:01:58.717Z,11.93
2022-09-12T01:02:58.614Z,11.89
2022-09-12T01:03:58.634Z,11.84
2022-09-12T01:04:58.642Z,11.82
2022-09-12T01:05:58.643Z,11.79
2022-09-12T01:06:58.564Z,11.84
2022-09-12T01:07:58.664Z,11.84
2022-09-12T01:08:58.683Z,11.89
2022-09-12T01:09:58.691Z,11.85
2022-09-12T01:10:58.550Z,11.85
2022-09-12T01:11:58.526Z,11.84
2022-09-12T01:12:58.542Z,11.77
2022-09-12T01:13:58.743Z,11.74
2022-09-12T01:14:58.775Z,11.69
2022-09-12T01:15:58.773Z,11.67
2022-09-12T01:16:58.523Z,11.69
2022-09-12T01:17:58.483Z,11.69
2022-09-12T01:18:58.711Z,11.69
2022-09-12T01:19:58.511Z,11.71
2022-09-12T01:20:58.472Z,11.67
2022-09-12T01:21:58.461Z,11.69
2022-09-12T01:22:58.865Z,11.66
2022-09-12T01:23:58.871Z,11.64
2022-09-12T01:24:58.882Z,11.66
2022-09-12T01:25:58.901Z,11.66
2022-09-12T01:26:58.431Z,11.69
2022-09-12T01:27:58.927Z,11.70
2022-09-12T01:28:58.611Z,11.76
2022-09-12T01:29:58.950Z,11.76
2022-09-12T01:30:58.460Z,11.71
2022-09-12T01:31:58.459Z,11.69
2022-09-12T01:32:58.437Z,11.64
2022-09-12T01:33:58.449Z,11.62
2022-09-12T01:34:58.500Z,11.61
2022-09-12T01:35:58.548Z,11.61
2022-09-12T01:36:58.359Z,11.64
2022-09-12T01:37:58.419Z,11.62
2022-09-12T01:38:58.649Z,11.59
2022-09-12T01:39:58.757Z,11.62
2022-09-12T01:40:58.339Z,11.56
2022-09-12T01:41:58.818Z,11.55
2022-09-12T01:42:58.647Z,11.54
2022-09-12T01:43:58.907Z,11.52
2022-09-12T01:44:58.957Z,11.51
2022-09-12T01:45:58.376Z,11.48
2022-09-12T01:46:58.358Z,11.43
2022-09-12T01:47:58.448Z,11.37
2022-09-12T01:48:58.347Z,11.33
2022-09-12T01:49:58.396Z,11.37
2022-09-12T01:50:58.571Z,11.33
2022-09-12T01:51:58.307Z,11.34
2022-09-12T01:52:58.277Z,11.38
2022-09-12T01:53:58.747Z,11.36
2022-09-12T01:54:58.300Z,11.36
2022-09-12T01:55:58.634Z,11.36
2022-09-12T01:56:58.527Z,11.30
2022-09-12T01:57:58.347Z,11.33
2022-09-12T01:58:58.296Z,11.33
2022-09-12T01:59:59.106Z,11.31
2022-09-12T02:00:58.657Z,11.27
2022-09-12T02:01:58.848Z,11.28
2022-09-12T02:02:59.064Z,11.23
2022-09-12T02:03:59.176Z,11.23
2022-09-12T02:04:58.452Z,11.20
2022-09-12T02:05:59.025Z,11.18
2022-09-12T02:06:58.862Z,11.15
2022-09-12T02:07:58.410Z,11.12
2022-09-12T02:08:58.223Z,11.13
2022-09-12T02:09:58.213Z,11.11
2022-09-12T02:10:58.239Z,11.12
2022-09-12T02:11:58.193Z,11.12
2022-09-12T02:12:58.242Z,11.13
2022-09-12T02:13:58.382Z,11.09
2022-09-12T02:14:58.256Z,11.05
2022-09-12T02:15:58.159Z,11.04
2022-09-12T02:16:58.104Z,11.03
2022-09-12T02:17:58.492Z,11.05
2022-09-12T02:18:58.491Z,11.01
2022-09-12T02:19:58.262Z,11.03
2022-09-12T02:20:58.064Z,11.05
2022-09-12T02:21:58.089Z,11.11
2022-09-12T02:22:58.108Z,11.08
2022-09-12T02:23:58.105Z,11.08
2022-09-12T02:24:58.111Z,11.11
2022-09-12T02:25:58.111Z,11.11
2022-09-12T02:26:58.050Z,11.13
2022-09-12T02:27:58.130Z,11.12
2022-09-12T02:28:58.060Z,11.15
2022-09-12T02:29:58.061Z,11.15
2022-09-12T02:30:58.149Z,11.20
2022-09-12T02:31:58.023Z,11.16
2022-09-12T02:32:58.102Z,11.15
2022-09-12T02:33:58.073Z,11.11
2022-09-12T02:34:58.099Z,11.12
2022-09-12T02:35:58.253Z,11.11
2022-09-12T02:36:58.150Z,11.11
2022-09-12T02:37:58.167Z,11.08
2022-09-12T02:38:58.168Z,11.03
2022-09-12T02:39:58.041Z,11.00
2022-09-12T02:40:58.198Z,11.04
2022-09-12T02:41:58.218Z,11.01
2022-09-12T02:42:58.232Z,11.01
2022-09-12T02:43:58.240Z,10.95
2022-09-12T02:44:58.257Z,10.91
2022-09-12T02:45:58.063Z,10.91
2022-09-12T02:46:57.939Z,10.90
2022-09-12T02:47:57.947Z,10.93
2022-09-12T02:48:57.987Z,10.97
2022-09-12T02:49:58.041Z,10.93
2022-09-12T02:50:58.116Z,10.95
2022-09-12T02:51:58.123Z,10.95
2022-09-12T02:52:58.067Z,10.94
2022-09-12T02:53:58.108Z,10.93
2022-09-12T02:54:58.263Z,10.90
2022-09-12T02:55:58.038Z,10.85
2022-09-12T02:56:58.135Z,10.85
2022-09-12T02:57:58.405Z,10.86
2022-09-12T02:58:57.965Z,10.86
2022-09-12T02:59:58.414Z,10.83
2022-09-12T03:00:58.506Z,10.85
2022-09-12T03:01:58.530Z,10.82
2022-09-12T03:02:58.220Z,10.82
2022-09-12T03:03:58.492Z,10.76
2022-09-12T03:04:57.783Z,10.76
2022-09-12T03:05:58.512Z,10.75
2022-09-12T03:06:57.773Z,10.75
2022-09-12T03:07:58.093Z,10.76
2022-09-12T03:08:57.780Z,10.75
2022-09-12T03:09:58.491Z,10.73
2022-09-12T03:10:58.281Z,10.72
2022-09-12T03:11:58.072Z,10.73
2022-09-12T03:12:57.780Z,10.75
2022-09-12T03:13:58.266Z,10.76
2022-09-12T03:14:57.723Z,10.75
2022-09-12T03:15:58.642Z,10.75
2022-09-12T03:16:58.621Z,10.76
2022-09-12T03:17:57.681Z,10.73
2022-09-12T03:18:57.723Z,10.70
2022-09-12T03:19:57.780Z,10.65
2022-09-12T03:20:57.850Z,10.70
2022-09-12T03:21:57.761Z,10.65
2022-09-12T03:22:57.701Z,10.62
2022-09-12T03:23:57.689Z,10.64
2022-09-12T03:24:57.689Z,10.64
2022-09-12T03:25:57.679Z,10.64
2022-09-12T03:26:57.729Z,10.64
2022-09-12T03:27:57.769Z,10.67
2022-09-12T03:28:57.699Z,10.65
2022-09-12T03:29:57.858Z,10.72
2022-09-12T03:30:57.969Z,10.76
2022-09-12T03:31:57.853Z,10.79
2022-09-12T03:32:57.979Z,10.72
2022-09-12T03:33:57.828Z,10.65
2022-09-12T03:34:57.898Z,10.65
2022-09-12T03:35:57.717Z,10.65
2022-09-12T03:36:58.205Z,10.70
2022-09-12T03:37:58.215Z,10.68
2022-09-12T03:38:58.168Z,10.67
2022-09-12T03:39:57.850Z,10.65
2022-09-12T03:40:58.348Z,10.65
2022-09-12T03:41:58.404Z,10.65
2022-09-12T03:42:57.586Z,10.70
2022-09-12T03:43:57.777Z,10.68
2022-09-12T03:44:57.825Z,10.64
2022-09-12T03:45:58.432Z,10.57
2022-09-12T03:46:57.629Z,10.55
2022-09-12T03:47:58.086Z,10.61
2022-09-12T03:48:57.495Z,10.62
2022-09-12T03:49:57.565Z,10.60
2022-09-12T03:50:57.465Z,10.61
2022-09-12T03:51:57.436Z,10.62
2022-09-12T03:52:57.433Z,10.61
2022-09-12T03:53:57.444Z,10.58
2022-09-12T03:54:57.434Z,10.54
2022-09-12T03:55:57.793Z,10.55
2022-09-12T03:56:57.594Z,10.58
2022-09-12T03:57:57.381Z,10.58
2022-09-12T03:58:57.893Z,10.57
2022-09-12T03:59:57.404Z,10.52
2022-09-12T04:00:57.439Z,10.55
2022-09-12T04:01:57.433Z,10.48
2022-09-12T04:02:57.363Z,10.45
2022-09-12T04:03:57.407Z,10.48
2022-09-12T04:04:57.383Z,10.43
2022-09-12T04:05:57.433Z,10.43
2022-09-12T04:06:57.359Z,10.43
2022-09-12T04:07:57.381Z,10.43
2022-09-12T04:08:57.383Z,10.39
2022-09-12T04:09:57.464Z,10.39
2022-09-12T04:10:57.502Z,10.41
2022-09-12T04:11:57.468Z,10.38
2022-09-12T04:12:57.511Z,10.38
2022-09-12T04:13:57.530Z,10.45
2022-09-12T04:14:57.541Z,10.46
2022-09-12T04:15:57.558Z,10.45
2022-09-12T04:16:57.242Z,10.45
2022-09-12T04:17:57.289Z,10.46
2022-09-12T04:18:57.270Z,10.45
2022-09-12T04:19:57.530Z,10.43
2022-09-12T04:20:57.629Z,10.49
2022-09-12T04:21:57.640Z,10.48
2022-09-12T04:22:57.232Z,10.46
2022-09-12T04:23:57.658Z,10.48
2022-09-12T04:24:57.668Z,10.43
2022-09-12T04:25:57.686Z,10.52
2022-09-12T04:26:57.288Z,10.48
2022-09-12T04:27:57.196Z,10.52
2022-09-12T04:28:57.208Z,10.45
2022-09-12T04:29:57.267Z,10.54
2022-09-12T04:30:57.767Z,10.48
2022-09-12T04:31:57.717Z,10.42
2022-09-12T04:32:57.555Z,10.39
2022-09-12T04:33:57.146Z,10.39
2022-09-12T04:34:57.799Z,10.38
2022-09-12T04:35:57.306Z,10.39
2022-09-12T04:36:57.135Z,10.34
2022-09-12T04:37:57.376Z,10.34
2022-09-12T04:38:57.165Z,10.35
2022-09-12T04:39:57.184Z,10.38
2022-09-12T04:40:57.185Z,10.41
2022-09-12T04:41:57.107Z,10.38
2022-09-12T04:42:57.283Z,10.39
2022-09-12T04:43:57.373Z,10.36
2022-09-12T04:44:57.385Z,10.36
2022-09-12T04:45:57.490Z,10.35
2022-09-12T04:46:57.484Z,10.31
2022-09-12T04:47:57.085Z,10.30
2022-09-12T04:48:57.502Z,10.31
2022-09-12T04:49:57.115Z,10.31
2022-09-12T04:50:57.434Z,10.34
2022-09-12T04:51:57.296Z,10.39
2022-09-12T04:52:57.781Z,10.45
2022-09-12T04:53:57.840Z,10.55
2022-09-12T04:54:57.053Z,10.55
2022-09-12T04:55:57.772Z,10.57
2022-09-12T04:56:57.060Z,10.64
2022-09-12T04:57:57.047Z,10.64
2022-09-12T04:58:57.072Z,10.67
2022-09-12T04:59:57.102Z,10.65
2022-09-12T05:00:57.020Z,10.70
2022-09-12T05:01:57.058Z,10.68
2022-09-12T05:02:56.982Z,10.62
2022-09-12T05:03:56.982Z,10.64
2022-09-12T05:04:56.990Z,10.62
2022-09-12T05:05:56.999Z,10.61
2022-09-12T05:06:56.941Z,10.57
2022-09-12T05:07:56.929Z,10.62
2022-09-12T05:08:57.030Z,10.62
2022-09-12T05:09:57.050Z,10.62
2022-09-12T05:10:57.593Z,10.62
2022-09-12T05:12:04.202Z,10.61
2022-09-12T05:12:56.970Z,10.62
2022-09-12T05:13:56.958Z,10.67
2022-09-12T05:14:56.870Z,10.67
2022-09-12T05:15:56.959Z,10.67
2022-09-12T05:16:56.965Z,10.65
2022-09-12T05:17:56.890Z,10.68
2022-09-12T05:18:56.899Z,10.65
2022-09-12T05:19:56.926Z,10.70
2022-09-12T05:20:56.808Z,10.65
2022-09-12T05:21:56.842Z,10.65
2022-09-12T05:22:56.957Z,10.70
2022-09-12T05:23:56.966Z,10.78
2022-09-12T05:24:56.987Z,10.78
2022-09-12T05:25:57.000Z,10.78
2022-09-12T05:26:57.275Z,10.83
2022-09-12T05:27:56.817Z,10.82
2022-09-12T05:28:56.828Z,10.87
2022-09-12T05:29:56.816Z,10.86
2022-09-12T05:30:56.931Z,10.85
2022-09-12T05:31:56.896Z,10.85
2022-09-12T05:32:56.927Z,10.86
2022-09-12T05:33:56.936Z,10.90
2022-09-12T05:34:56.835Z,10.91
2022-09-12T05:35:56.993Z,10.93
2022-09-12T05:36:56.834Z,10.98
2022-09-12T05:37:56.932Z,11.04
2022-09-12T05:38:57.170Z,11.08
2022-09-12T05:39:56.851Z,11.13
2022-09-12T05:40:56.673Z,11.20
2022-09-12T05:41:57.210Z,11.27
2022-09-12T05:42:56.808Z,11.31
2022-09-12T05:43:56.735Z,11.36
2022-09-12T05:44:56.890Z,11.41
2022-09-12T05:45:56.805Z,11.48
2022-09-12T05:46:57.285Z,11.55
2022-09-12T05:47:56.762Z,11.64
2022-09-12T05:48:56.950Z,11.71
2022-09-12T05:49:56.762Z,11.80
2022-09-12T05:50:56.621Z,11.89
2022-09-12T05:51:56.775Z,11.97
2022-09-12T05:52:56.703Z,11.99
2022-09-12T05:53:56.790Z,12.10
2022-09-12T05:54:56.610Z,12.18
2022-09-12T05:55:56.630Z,12.26
2022-09-12T05:56:57.031Z,12.38
2022-09-12T05:57:56.643Z,12.44
2022-09-12T05:58:57.040Z,12.50
2022-09-12T05:59:56.701Z,12.58
2022-09-12T06:00:56.620Z,12.65
2022-09-12T06:01:56.726Z,12.73
2022-09-12T06:02:57.190Z,12.83
2022-09-12T06:03:56.581Z,12.91
2022-09-12T06:04:56.600Z,12.98
2022-09-12T06:05:56.687Z,12.90
2022-09-12T06:06:56.559Z,12.96
2022-09-12T06:07:56.977Z,12.99
2022-09-12T06:08:57.493Z,12.98
2022-09-12T06:09:57.319Z,13.04
2022-09-12T06:11:00.374Z,13.13
2022-09-12T06:11:56.994Z,13.17
2022-09-12T06:12:56.528Z,13.24
2022-09-12T06:13:57.052Z,13.29
2022-09-12T06:14:57.304Z,13.36
2022-09-12T06:15:56.838Z,13.43
2022-09-12T06:16:56.746Z,13.53
2022-09-12T06:17:57.242Z,13.60
2022-09-12T06:18:56.949Z,13.65
2022-09-12T06:19:57.417Z,13.72
2022-09-12T06:20:56.547Z,13.75
2022-09-12T06:21:56.879Z,13.82
2022-09-12T06:22:56.566Z,13.83
2022-09-12T06:23:57.183Z,13.94
2022-09-12T06:24:58.105Z,13.97
2022-09-12T06:25:56.386Z,14.03
2022-09-12T06:26:56.435Z,14.12
2022-09-12T06:27:56.416Z,14.11
2022-09-12T06:28:56.478Z,14.12
2022-09-12T06:29:56.504Z,14.18
2022-09-12T06:30:56.652Z,14.18
2022-09-12T06:31:56.625Z,14.21
2022-09-12T06:32:56.376Z,14.22
2022-09-12T06:33:56.406Z,14.31
2022-09-12T06:34:56.536Z,14.37
2022-09-12T06:35:56.461Z,14.45
2022-09-12T06:36:56.775Z,14.45
2022-09-12T06:37:56.766Z,14.48
2022-09-12T06:38:56.314Z,14.53
2022-09-12T06:39:56.397Z,14.61
2022-09-12T06:40:56.280Z,14.69
2022-09-12T06:41:56.403Z,14.74
2022-09-12T06:42:56.315Z,14.77
2022-09-12T06:43:56.293Z,14.85
2022-09-12T06:44:56.333Z,14.85
2022-09-12T06:45:56.367Z,14.99
2022-09-12T06:46:56.685Z,15.14
2022-09-12T06:47:56.341Z,15.26
2022-09-12T06:48:56.343Z,15.40
2022-09-12T06:49:56.362Z,15.58
2022-09-12T06:50:56.377Z,15.68
2022-09-12T06:51:56.342Z,15.77
2022-09-12T06:52:56.401Z,15.87
2022-09-12T06:53:56.430Z,15.98
2022-09-12T06:54:56.432Z,16.10
2022-09-12T06:55:56.441Z,16.26
2022-09-12T06:56:56.271Z,16.37
2022-09-12T06:57:56.231Z,16.59
2022-09-12T06:58:56.420Z,16.73
2022-09-12T06:59:56.492Z,16.91
2022-09-12T07:00:59.098Z,17.02
2022-09-12T07:01:56.611Z,17.20
2022-09-12T07:02:56.576Z,17.27
2022-09-12T07:03:56.211Z,17.32
2022-09-12T07:04:56.140Z,17.45
2022-09-12T07:05:56.230Z,17.53
2022-09-12T07:06:56.250Z,17.57
2022-09-12T07:07:56.180Z,17.69
2022-09-12T07:08:56.239Z,17.83
2022-09-12T07:09:56.381Z,17.88
2022-09-12T07:10:56.117Z,17.97
2022-09-12T07:11:56.469Z,18.06
2022-09-12T07:12:56.074Z,18.11
2022-09-12T07:13:56.120Z,18.15
2022-09-12T07:14:56.089Z,18.13
2022-09-12T07:15:56.310Z,18.15
2022-09-12T07:16:56.647Z,18.23
2022-09-12T07:17:56.057Z,18.26
2022-09-12T07:18:56.099Z,18.31
2022-09-12T07:19:56.748Z,18.38
2022-09-12T07:20:56.760Z,18.42
2022-09-12T07:21:58.691Z,18.46
2022-09-12T07:22:56.269Z,18.48
2022-09-12T07:23:56.351Z,18.57
2022-09-12T07:24:55.988Z,18.66
2022-09-12T07:25:56.818Z,18.74
2022-09-12T07:26:56.259Z,18.75
2022-09-12T07:27:56.219Z,18.81
2022-09-12T07:29:07.802Z,18.91
2022-09-12T07:29:55.977Z,18.97
2022-09-12T07:30:56.000Z,19.01
2022-09-12T07:31:56.080Z,19.05
2022-09-12T07:32:56.038Z,19.04
2022-09-12T07:33:56.339Z,19.08
2022-09-12T07:34:55.928Z,19.12
2022-09-12T07:35:56.238Z,19.26
2022-09-12T07:36:56.249Z,19.37
2022-09-12T07:37:56.296Z,19.54
2022-09-12T07:38:57.574Z,19.67
2022-09-12T07:39:55.986Z,19.77
2022-09-12T07:40:56.468Z,19.86
2022-09-12T07:41:55.887Z,20.02
2022-09-12T07:42:55.835Z,20.09
2022-09-12T07:43:55.968Z,20.12
2022-09-12T07:44:55.937Z,20.09
2022-09-12T07:45:55.890Z,20.11
2022-09-12T07:46:56.143Z,20.02
2022-09-12T07:47:55.937Z,20.07
2022-09-12T07:48:56.090Z,19.99
2022-09-12T07:49:56.247Z,19.94
2022-09-12T07:50:55.818Z,19.72
2022-09-12T07:51:56.346Z,19.54
2022-09-12T07:52:56.025Z,19.56
2022-09-12T07:53:56.395Z,19.56
2022-09-12T07:54:56.492Z,19.62
2022-09-12T07:55:56.072Z,19.60
2022-09-12T07:56:56.578Z,19.62
2022-09-12T07:57:56.636Z,19.59
2022-09-12T07:58:56.007Z,19.60
2022-09-12T07:59:55.755Z,19.70
2022-09-12T08:00:56.715Z,19.74
2022-09-12T08:01:56.603Z,19.75
2022-09-12T08:02:56.561Z,19.81
2022-09-12T08:03:56.005Z,19.96
2022-09-12T08:04:56.046Z,20.04
2022-09-12T08:05:56.515Z,20.11
2022-09-12T08:06:56.095Z,20.23
2022-09-12T08:07:57.739Z,20.27
2022-09-12T08:08:55.744Z,20.32
2022-09-12T08:09:56.287Z,20.32
2022-09-12T08:10:55.635Z,20.26
2022-09-12T08:11:55.635Z,20.26
2022-09-12T08:12:55.645Z,20.27
2022-09-12T08:13:56.176Z,20.33
2022-09-12T08:14:55.643Z,20.30
2022-09-12T08:15:55.771Z,20.15
2022-09-12T08:16:55.627Z,20.27
2022-09-12T08:17:55.605Z,20.29
2022-09-12T08:18:55.619Z,20.19
2022-09-12T08:19:55.585Z,20.15
2022-09-12T08:20:55.585Z,20.25
2022-09-12T08:21:55.626Z,20.34
2022-09-12T08:22:55.552Z,20.30
2022-09-12T08:23:55.704Z,20.33
2022-09-12T08:24:55.544Z,20.30
2022-09-12T08:25:55.534Z,20.25
2022-09-12T08:26:55.514Z,20.15
2022-09-12T08:27:55.676Z,20.12
2022-09-12T08:28:55.524Z,20.17
2022-09-12T08:29:55.816Z,20.34
2022-09-12T08:30:55.551Z,20.42
2022-09-12T08:31:57.380Z,20.37
2022-09-12T08:32:55.788Z,20.34
2022-09-12T08:33:55.533Z,20.32
2022-09-12T08:34:55.471Z,20.26
2022-09-12T08:35:55.474Z,20.34
2022-09-12T08:36:55.842Z,20.42
2022-09-12T08:37:55.444Z,20.46
2022-09-12T08:38:59.310Z,20.50
2022-09-12T08:39:55.541Z,20.46
2022-09-12T08:40:55.685Z,20.34
2022-09-12T08:41:55.403Z,20.29
2022-09-12T08:42:55.914Z,20.32
2022-09-12T08:43:56.896Z,20.25
2022-09-12T08:44:55.394Z,20.33
2022-09-12T08:45:55.987Z,20.42
2022-09-12T08:46:55.374Z,20.58
2022-09-12T08:47:55.373Z,20.71
2022-09-12T08:48:55.404Z,20.83
2022-09-12T08:49:56.003Z,20.86
2022-09-12T08:50:55.670Z,20.93
2022-09-12T08:51:55.491Z,20.98
2022-09-12T08:52:55.472Z,21.01
2022-09-12T08:53:55.332Z,21.10
2022-09-12T08:54:55.348Z,21.20
2022-09-12T08:55:55.459Z,21.18
2022-09-12T08:56:55.323Z,21.26
2022-09-12T08:57:55.285Z,21.25
2022-09-12T08:58:55.306Z,21.25
2022-09-12T08:59:55.531Z,21.35
2022-09-12T09:00:55.698Z,21.41
2022-09-12T09:01:55.426Z,21.40
2022-09-12T09:02:55.842Z,21.44
2022-09-12T09:03:55.602Z,21.59
2022-09-12T09:04:55.862Z,21.63
2022-09-12T09:05:55.915Z,21.65
2022-09-12T09:06:55.234Z,21.74
2022-09-12T09:07:56.022Z,21.85
2022-09-12T09:08:56.052Z,22.01
2022-09-12T09:09:55.230Z,22.06
2022-09-12T09:10:55.684Z,22.07
2022-09-12T09:11:55.202Z,22.09
2022-09-12T09:12:55.271Z,22.15
2022-09-12T09:13:55.191Z,22.18
2022-09-12T09:14:55.212Z,22.12
2022-09-12T09:15:55.218Z,22.21
2022-09-12T09:16:55.191Z,22.19
2022-09-12T09:17:55.199Z,22.22
2022-09-12T09:18:55.151Z,22.25
2022-09-12T09:19:55.158Z,22.25
2022-09-12T09:20:55.139Z,22.31
2022-09-12T09:21:55.122Z,22.43
2022-09-12T09:22:55.111Z,22.55
2022-09-12T09:23:55.110Z,22.64
2022-09-12T09:24:55.135Z,22.40
2022-09-12T09:25:55.098Z,22.19
2022-09-12T09:26:55.104Z,22.06
2022-09-12T09:27:55.081Z,22.09
2022-09-12T09:28:55.083Z,22.19
2022-09-12T09:29:55.082Z,22.33
2022-09-12T09:30:55.133Z,22.36
2022-09-12T09:31:55.122Z,22.37
2022-09-12T09:32:55.051Z,22.43
2022-09-12T09:33:55.673Z,22.48
2022-09-12T09:34:55.106Z,22.41
2022-09-12T09:35:55.030Z,22.43
2022-09-12T09:36:55.023Z,22.31
2022-09-12T09:37:58.543Z,22.18
2022-09-12T09:38:55.012Z,22.12
2022-09-12T09:39:55.050Z,22.12
2022-09-12T09:40:55.004Z,22.16
2022-09-12T09:41:54.981Z,22.25
2022-09-12T09:42:54.982Z,22.23
2022-09-12T09:43:55.032Z,22.18
2022-09-12T09:44:54.992Z,22.16
2022-09-12T09:45:55.027Z,22.23
2022-09-12T09:46:55.389Z,22.12
2022-09-12T09:47:54.934Z,22.06
2022-09-12T09:48:54.934Z,22.01
2022-09-12T09:49:54.945Z,22.07
2022-09-12T09:50:54.929Z,22.06
2022-09-12T09:51:57.668Z,22.13
2022-09-12T09:52:54.913Z,22.25
2022-09-12T09:53:54.912Z,22.18
2022-09-12T09:54:55.491Z,22.31
2022-09-12T09:55:54.880Z,22.28
2022-09-12T09:56:54.890Z,22.23
2022-09-12T09:57:54.878Z,22.19
2022-09-12T09:58:54.870Z,22.33
2022-09-12T09:59:54.870Z,22.44
2022-09-12T10:00:56.735Z,22.52
2022-09-12T10:01:55.594Z,22.33
2022-09-12T10:02:54.886Z,22.28
2022-09-12T10:03:54.951Z,22.38
2022-09-12T10:04:54.850Z,22.52
2022-09-12T10:05:54.843Z,22.64
2022-09-12T10:06:54.847Z,22.80
2022-09-12T10:07:54.941Z,22.98
2022-09-12T10:08:54.797Z,23.25
2022-09-12T10:09:55.072Z,23.45
2022-09-12T10:10:55.084Z,23.49
2022-09-12T10:11:54.770Z,23.33
2022-09-12T10:12:54.769Z,23.34
2022-09-12T10:13:54.801Z,23.41
2022-09-12T10:14:54.800Z,23.39
2022-09-12T10:15:55.375Z,23.15
2022-09-12T10:16:55.430Z,23.26
2022-09-12T10:17:54.799Z,23.48
2022-09-12T10:18:54.722Z,23.60
2022-09-12T10:20:17.397Z,23.67
2022-09-12T10:20:54.711Z,23.79
2022-09-12T10:21:55.280Z,23.91
2022-09-12T10:22:55.600Z,23.52
2022-09-12T10:23:54.689Z,23.28
2022-09-12T10:24:54.708Z,23.22
2022-09-12T10:25:54.681Z,23.22
2022-09-12T10:26:56.928Z,23.23
2022-09-12T10:27:54.659Z,23.18
2022-09-12T10:28:54.749Z,23.36
2022-09-12T10:29:55.701Z,23.46
2022-09-12T10:30:54.761Z,23.45
2022-09-12T10:31:54.650Z,23.45
2022-09-12T10:32:54.907Z,23.34
2022-09-12T10:33:54.643Z,23.49
2022-09-12T10:34:54.640Z,23.82
2022-09-12T10:35:54.660Z,23.98
2022-09-12T10:36:54.630Z,23.88
2022-09-12T10:37:55.440Z,23.98
2022-09-12T10:38:54.720Z,24.15
2022-09-12T10:39:54.627Z,24.28
2022-09-12T10:40:54.588Z,24.11
2022-09-12T10:41:54.559Z,23.84
2022-09-12T10:42:54.722Z,23.42
2022-09-12T10:43:54.551Z,23.06
2022-09-12T10:44:54.557Z,23.03
2022-09-12T10:45:54.602Z,23.29
2022-09-12T10:46:54.558Z,23.70
2022-09-12T10:47:54.522Z,24.36
2022-09-12T10:48:54.520Z,25.08
2022-09-12T10:49:54.583Z,25.43
2022-09-12T10:50:54.520Z,25.43
2022-09-12T10:51:55.211Z,25.52
2022-09-12T10:52:54.499Z,25.92
2022-09-12T10:53:54.483Z,26.00
2022-09-12T10:54:54.498Z,26.33
2022-09-12T10:55:54.515Z,26.63
2022-09-12T10:56:54.469Z,27.16
2022-09-12T10:57:54.479Z,27.32
2022-09-12T10:58:54.460Z,26.30
2022-09-12T10:59:54.460Z,25.31
2022-09-12T11:00:54.592Z,24.97
2022-09-12T11:01:54.449Z,24.48
2022-09-12T11:02:54.439Z,24.16
2022-09-12T11:03:54.400Z,23.91
2022-09-12T11:04:54.601Z,24.36
2022-09-12T11:05:54.401Z,24.82
2022-09-12T11:06:54.389Z,25.22
2022-09-12T11:07:54.370Z,25.55
2022-09-12T11:08:54.380Z,24.97
2022-09-12T11:09:54.359Z,24.99
2022-09-12T11:10:54.509Z,25.21
2022-09-12T11:11:54.721Z,25.58
2022-09-12T11:12:54.531Z,25.58
2022-09-12T11:13:54.343Z,25.56
2022-09-12T11:14:54.359Z,26.11
2022-09-12T11:15:54.490Z,26.49
2022-09-12T11:16:54.359Z,26.75
2022-09-12T11:17:54.561Z,27.13
2022-09-12T11:18:54.569Z,27.08
2022-09-12T11:19:54.296Z,26.95
2022-09-12T11:20:54.520Z,26.89
2022-09-12T11:21:54.708Z,26.75
2022-09-12T11:22:54.499Z,27.01
2022-09-12T11:23:54.800Z,26.89
2022-09-12T11:24:54.928Z,27.19
2022-09-12T11:25:54.519Z,26.94
2022-09-12T11:26:54.939Z,27.08
2022-09-12T11:27:54.951Z,27.47
2022-09-12T11:28:54.951Z,27.70
2022-09-12T11:29:54.978Z,27.73
2022-09-12T11:30:55.006Z,26.93
2022-09-12T11:31:54.559Z,26.42
2022-09-12T11:32:54.250Z,26.33
2022-09-12T11:33:56.765Z,26.65
2022-09-12T11:34:54.259Z,27.10
2022-09-12T11:35:55.622Z,27.49
2022-09-12T11:36:54.200Z,27.44
2022-09-12T11:37:54.200Z,27.35
2022-09-12T11:38:54.190Z,27.13
2022-09-12T11:39:55.819Z,27.31
2022-09-12T11:40:54.302Z,27.57
2022-09-12T11:41:54.300Z,27.34
2022-09-12T11:42:54.209Z,27.69
2022-09-12T11:43:54.445Z,28.07
2022-09-12T11:44:54.141Z,28.07
2022-09-12T11:45:54.187Z,27.49
2022-09-12T11:46:54.219Z,28.01
2022-09-12T11:47:54.270Z,28.50
2022-09-12T11:48:54.139Z,28.77
2022-09-12T11:49:54.110Z,28.12
2022-09-12T11:50:54.121Z,27.12
2022-09-12T11:51:54.160Z,26.04
2022-09-12T11:52:54.172Z,26.42
2022-09-12T11:53:54.300Z,26.90
2022-09-12T11:54:54.261Z,27.20
2022-09-12T11:55:54.086Z,26.90
2022-09-12T11:56:54.078Z,27.40
2022-09-12T11:57:54.401Z,28.07
2022-09-12T11:58:54.548Z,28.38
2022-09-12T11:59:54.542Z,28.27
2022-09-12T12:00:54.153Z,28.03
2022-09-12T12:01:54.642Z,27.85
2022-09-12T12:02:54.588Z,27.80
2022-09-12T12:03:54.027Z,27.15
2022-09-12T12:04:54.781Z,27.13
2022-09-12T12:05:54.453Z,27.32
2022-09-12T12:06:54.841Z,27.31
2022-09-12T12:07:54.881Z,27.22
2022-09-12T12:08:54.900Z,27.35
2022-09-12T12:09:54.800Z,27.26
2022-09-12T12:10:54.961Z,26.58
2022-09-12T12:11:54.861Z,26.00
2022-09-12T12:12:54.220Z,25.89
2022-09-12T12:13:54.930Z,26.10
2022-09-12T12:14:54.193Z,26.24
2022-09-12T12:15:54.112Z,26.20
2022-09-12T12:16:54.060Z,26.04
2022-09-12T12:17:54.803Z,26.08
2022-09-12T12:18:53.921Z,26.07
2022-09-12T12:19:54.864Z,25.96
2022-09-12T12:20:54.280Z,25.74
2022-09-12T12:21:54.670Z,25.66
2022-09-12T12:22:54.200Z,25.64
2022-09-12T12:23:54.742Z,25.40
2022-09-12T12:24:53.860Z,25.37
2022-09-12T12:25:54.452Z,25.38
2022-09-12T12:26:55.193Z,25.43
2022-09-12T12:27:53.991Z,25.40
2022-09-12T12:28:53.851Z,25.33
2022-09-12T12:29:53.871Z,25.33
2022-09-12T12:30:53.873Z,25.45
2022-09-12T12:31:53.852Z,25.53
2022-09-12T12:32:53.841Z,25.45
2022-09-12T12:33:53.850Z,25.56
2022-09-12T12:34:53.799Z,25.58
2022-09-12T12:35:53.792Z,25.49
2022-09-12T12:36:53.791Z,25.38
2022-09-12T12:37:53.794Z,25.28
2022-09-12T12:38:53.760Z,25.27
2022-09-12T12:39:53.835Z,25.31
2022-09-12T12:40:54.232Z,25.45
2022-09-12T12:41:53.802Z,25.55
2022-09-12T12:42:54.023Z,25.67
2022-09-12T12:43:54.035Z,25.77
2022-09-12T12:44:54.023Z,25.89
2022-09-12T12:45:54.064Z,25.90
2022-09-12T12:46:54.042Z,25.93
2022-09-12T12:47:54.054Z,25.82
2022-09-12T12:48:53.858Z,25.68
2022-09-12T12:49:53.940Z,25.75
2022-09-12T12:50:53.934Z,25.75
2022-09-12T12:51:54.163Z,25.93
2022-09-12T12:52:54.145Z,26.15